Time;durP1;ratioP1;P1;durP2;ratioP2;P2;SDS_P1;SDS_P2;PMS_P1;PMS_P2;Temp;Humidity;BMP_temperature;BMP_pressure;BME280_temperature;BME280_humidity;BME280_pressure;Samples;Min_cycle;Max_cycle;Signal;HPM_P1;HPM_P2
2021/08/20 00:01:21;;;;;;;2.73;1.60;;;19.00;99.90;;;;;;4990191;28;20215;-50
2021/08/20 00:03:47;;;;;;;2.13;2.03;;;18.90;99.90;;;;;;4990925;28;20270;-51
2021/08/20 00:06:13;;;;;;;2.40;2.20;;;18.90;99.90;;;;;;4987857;28;20206;-51
2021/08/20 00:08:38;;;;;;;2.63;1.90;;;18.90;99.90;;;;;;4990514;28;20183;-51
2021/08/20 00:11:06;;;;;;;2.47;2.27;;;18.90;99.90;;;;;;4987531;28;20202;-51
2021/08/20 00:13:32;;;;;;;2.17;1.98;;;18.90;99.90;;;;;;4990856;28;20195;-50
2021/08/20 00:15:58;;;;;;;2.30;2.10;;;19.00;99.90;;;;;;4990189;28;20218;-50
2021/08/20 00:18:25;;;;;;;2.30;2.10;;;19.00;99.90;;;;;;4989266;28;20199;-51
2021/08/20 00:20:50;;;;;;;2.25;2.10;;;18.90;99.90;;;;;;4988653;28;20586;-51
2021/08/20 00:23:16;;;;;;;2.33;2.13;;;19.00;99.90;;;;;;4991126;28;20179;-51
2021/08/20 00:25:42;;;;;;;2.73;2.53;;;19.10;99.90;;;;;;4985215;28;20212;-51
2021/08/20 00:28:08;;;;;;;2.03;1.83;;;19.10;99.90;;;;;;4987976;28;20425;-50
2021/08/20 00:30:33;;;;;;;3.13;2.10;;;19.10;99.90;;;;;;4990125;28;20282;-51
2021/08/20 00:32:59;;;;;;;3.87;2.17;;;19.10;99.90;;;;;;4990863;28;20191;-51
2021/08/20 00:35:25;;;;;;;2.27;1.90;;;19.10;99.90;;;;;;4985738;28;20191;-50
2021/08/20 00:37:50;;;;;;;2.33;1.67;;;19.10;99.90;;;;;;4988066;28;20196;-52
2021/08/20 00:40:17;;;;;;;2.70;2.10;;;19.10;99.90;;;;;;4986907;28;20668;-51
2021/08/20 00:42:43;;;;;;;2.20;2.00;;;19.10;99.90;;;;;;4981737;28;20191;-52
2021/08/20 00:45:09;;;;;;;2.40;2.20;;;19.10;99.90;;;;;;4989451;28;20190;-50
2021/08/20 00:47:35;;;;;;;1.90;1.80;;;19.00;99.90;;;;;;4984231;28;21001;-51
2021/08/20 00:50:06;;;;;;;2.00;1.67;;;19.00;99.90;;;;;;4988466;28;20180;-51
2021/08/20 00:52:32;;;;;;;2.47;2.15;;;19.00;99.90;;;;;;4984779;28;20447;-50
2021/08/20 00:54:58;;;;;;;2.35;2.03;;;18.90;99.90;;;;;;4990629;28;20180;-51
2021/08/20 00:57:24;;;;;;;2.60;1.73;;;19.00;99.90;;;;;;4987730;28;20234;-50
2021/08/20 00:59:50;;;;;;;2.90;2.27;;;19.00;99.90;;;;;;4987850;28;20586;-51
2021/08/20 01:02:16;;;;;;;2.40;2.20;;;18.90;99.90;;;;;;4990129;28;20226;-51
2021/08/20 01:04:42;;;;;;;4.18;2.05;;;18.90;99.90;;;;;;4989427;28;20492;-51
2021/08/20 01:07:09;;;;;;;2.43;2.00;;;18.70;99.90;;;;;;4990134;28;20203;-51
2021/08/20 01:09:38;;;;;;;2.30;1.95;;;18.80;99.90;;;;;;4990006;28;20974;-51
2021/08/20 01:12:05;;;;;;;4.15;2.05;;;18.80;99.90;;;;;;4987784;28;20606;-50
2021/08/20 01:14:33;;;;;;;2.15;1.95;;;18.90;99.90;;;;;;4990165;28;20186;-51
2021/08/20 01:17:01;;;;;;;3.05;2.50;;;19.00;99.90;;;;;;4986943;28;20210;-51
2021/08/20 01:19:27;;;;;;;2.10;1.70;;;19.00;99.90;;;;;;4982745;28;20250;-51
2021/08/20 01:21:53;;;;;;;1.77;1.67;;;18.90;99.90;;;;;;4989725;28;20211;-51
2021/08/20 01:24:20;;;;;;;3.30;2.33;;;18.90;99.90;;;;;;4990295;28;20551;-50
2021/08/20 01:26:47;;;;;;;2.08;1.80;;;19.00;99.90;;;;;;4985704;28;20928;-50
2021/08/20 01:29:16;;;;;;;3.35;2.10;;;18.90;99.90;;;;;;4991075;28;20578;-50
2021/08/20 01:31:44;;;;;;;2.45;1.73;;;18.80;99.90;;;;;;4993240;28;20183;-50
2021/08/20 01:34:10;;;;;;;1.80;1.67;;;18.80;99.90;;;;;;4989712;28;20245;-50
2021/08/20 01:36:35;;;;;;;2.80;2.03;;;18.70;99.90;;;;;;4989073;28;20211;-50
2021/08/20 01:39:01;;;;;;;1.97;1.87;;;18.60;99.90;;;;;;4991915;28;20645;-50
2021/08/20 01:41:28;;;;;;;2.50;2.07;;;18.60;99.90;;;;;;4991410;28;20222;-50
2021/08/20 01:43:55;;;;;;;1.92;1.75;;;18.60;99.90;;;;;;4992799;28;20447;-50
2021/08/20 01:46:20;;;;;;;2.22;2.03;;;18.70;99.90;;;;;;4992180;28;20209;-50
2021/08/20 01:48:51;;;;;;;2.10;1.90;;;18.70;99.90;;;;;;4981119;28;20263;-50
2021/08/20 01:51:18;;;;;;;2.45;1.70;;;18.70;99.90;;;;;;4993186;28;20658;-51
2021/08/20 01:53:46;;;;;;;1.88;1.77;;;18.80;99.90;;;;;;4993176;28;20195;-50
2021/08/20 01:56:17;;;;;;;2.95;1.95;;;18.80;99.90;;;;;;4983431;28;20208;-50
2021/08/20 01:58:44;;;;;;;2.58;1.83;;;18.80;99.90;;;;;;4991196;28;20191;-50
2021/08/20 02:01:11;;;;;;;2.38;2.13;;;18.90;99.90;;;;;;4991615;28;20294;-50
2021/08/20 02:03:37;;;;;;;2.08;1.88;;;18.90;99.90;;;;;;4986462;28;20184;-49
2021/08/20 02:06:03;;;;;;;3.30;2.00;;;18.90;99.90;;;;;;4992910;28;20385;-50
2021/08/20 02:08:28;;;;;;;1.75;1.65;;;18.90;99.90;;;;;;4992596;28;20439;-50
2021/08/20 02:10:55;;;;;;;2.60;1.90;;;18.90;99.90;;;;;;4988354;28;20198;-50
2021/08/20 02:13:22;;;;;;;2.17;2.00;;;19.10;99.90;;;;;;4993428;28;20513;-50
2021/08/20 02:15:49;;;;;;;1.67;1.50;;;18.80;99.90;;;;;;4992283;28;20631;-50
2021/08/20 02:18:16;;;;;;;2.50;2.22;;;18.80;99.90;;;;;;4991219;28;20200;-50
2021/08/20 02:20:42;;;;;;;3.10;2.20;;;18.80;99.90;;;;;;4987625;28;20747;-50
2021/08/20 02:23:09;;;;;;;1.80;1.70;;;18.80;99.90;;;;;;4992676;28;20258;-50
2021/08/20 02:25:34;;;;;;;2.67;2.05;;;18.90;99.90;;;;;;4991570;28;20593;-50
2021/08/20 02:28:00;;;;;;;2.20;1.93;;;18.90;99.90;;;;;;4992319;28;20259;-49
2021/08/20 02:30:26;;;;;;;1.90;1.80;;;18.80;99.90;;;;;;4992205;28;20195;-50
2021/08/20 02:32:52;;;;;;;3.50;2.17;;;18.80;99.90;;;;;;4992520;28;20185;-50
2021/08/20 02:35:18;;;;;;;2.67;2.47;;;18.90;99.90;;;;;;4985876;28;20189;-51
2021/08/20 02:37:43;;;;;;;3.63;2.13;;;18.80;99.90;;;;;;4985205;28;20210;-50
2021/08/20 02:40:09;;;;;;;4.10;2.10;;;18.80;99.90;;;;;;4989572;28;20180;-50
2021/08/20 02:42:35;;;;;;;2.28;2.00;;;18.70;99.90;;;;;;4983975;28;20207;-50
2021/08/20 02:45:01;;;;;;;1.90;1.77;;;18.70;99.90;;;;;;4992094;28;20330;-51
2021/08/20 02:47:27;;;;;;;3.17;2.13;;;18.70;99.90;;;;;;4991122;28;20991;-51
2021/08/20 02:49:53;;;;;;;3.80;1.87;;;18.80;99.90;;;;;;4991761;28;20210;-51
2021/08/20 02:52:18;;;;;;;2.67;1.90;;;18.90;99.90;;;;;;4990434;28;20546;-50
2021/08/20 02:54:44;;;;;;;2.03;1.80;;;18.90;99.90;;;;;;4991908;28;20207;-51
2021/08/20 02:57:10;;;;;;;2.03;1.83;;;18.90;99.90;;;;;;4989757;28;20211;-51
2021/08/20 02:59:35;;;;;;;2.53;2.20;;;18.80;99.90;;;;;;4990538;28;20194;-50
2021/08/20 03:02:01;;;;;;;2.50;2.00;;;18.80;99.90;;;;;;4986568;28;20554;-49
2021/08/20 03:04:28;;;;;;;2.30;1.90;;;18.80;99.90;;;;;;4987847;28;20629;-50
2021/08/20 03:06:54;;;;;;;2.15;1.90;;;18.70;99.90;;;;;;4992050;28;20688;-50
2021/08/20 03:09:20;;;;;;;2.42;2.10;;;18.70;99.90;;;;;;4991308;28;20235;-50
2021/08/20 03:11:47;;;;;;;2.40;2.00;;;18.80;99.90;;;;;;4990142;28;20191;-50
2021/08/20 03:14:13;;;;;;;1.80;1.50;;;18.80;99.90;;;;;;4991680;28;20274;-51
2021/08/20 03:16:38;;;;;;;2.80;1.80;;;18.70;99.90;;;;;;4991019;28;20306;-51
2021/08/20 03:19:04;;;;;;;1.80;1.40;;;18.70;99.90;;;;;;4990125;28;20458;-50
2021/08/20 03:21:30;;;;;;;3.73;2.00;;;18.70;99.90;;;;;;4984157;28;20477;-50
2021/08/20 03:23:56;;;;;;;2.70;2.07;;;18.80;99.90;;;;;;4991416;28;20659;-50
2021/08/20 03:26:23;;;;;;;3.80;2.17;;;18.70;99.90;;;;;;4989690;28;20207;-51
2021/08/20 03:28:49;;;;;;;2.55;1.95;;;18.80;99.90;;;;;;4984113;28;20525;-50
2021/08/20 03:31:15;;;;;;;2.33;2.10;;;18.90;99.90;;;;;;4991230;28;20188;-51
2021/08/20 03:33:41;;;;;;;2.10;1.90;;;18.90;99.90;;;;;;4991233;28;20195;-51
2021/08/20 03:36:07;;;;;;;1.90;1.80;;;18.70;99.90;;;;;;4984675;28;20730;-51
2021/08/20 03:38:33;;;;;;;2.37;2.03;;;18.80;99.90;;;;;;4989772;28;20188;-51
2021/08/20 03:40:59;;;;;;;2.53;1.73;;;18.70;99.90;;;;;;4988742;28;20467;-50
2021/08/20 03:43:24;;;;;;;2.40;2.20;;;18.70;99.90;;;;;;4990960;28;20532;-51
2021/08/20 03:45:50;;;;;;;2.93;2.10;;;18.70;99.90;;;;;;4983567;28;20199;-50
2021/08/20 03:48:16;;;;;;;1.90;1.80;;;18.80;99.90;;;;;;4989301;28;20202;-51
2021/08/20 03:50:41;;;;;;;2.20;2.00;;;18.80;99.90;;;;;;4978776;28;20227;-50
2021/08/20 03:53:07;;;;;;;2.87;2.00;;;18.80;99.90;;;;;;4990896;28;20278;-50
2021/08/20 03:55:33;;;;;;;2.13;1.80;;;18.80;99.90;;;;;;4987620;28;20188;-50
2021/08/20 03:57:59;;;;;;;2.10;1.90;;;18.80;99.90;;;;;;4990387;28;20214;-50
2021/08/20 04:00:24;;;;;;;2.10;1.90;;;18.70;99.90;;;;;;4987699;28;20235;-50
2021/08/20 04:02:50;;;;;;;2.50;2.30;;;18.70;99.90;;;;;;4986839;28;20207;-50
2021/08/20 04:05:16;;;;;;;2.93;2.07;;;18.80;99.90;;;;;;4979851;28;20187;-59
2021/08/20 04:07:41;;;;;;;2.57;2.37;;;18.70;99.90;;;;;;4989544;28;20200;-58
2021/08/20 04:10:08;;;;;;;2.83;2.23;;;18.70;99.90;;;;;;4988683;28;20198;-59
2021/08/20 04:12:33;;;;;;;2.30;2.10;;;18.30;99.90;;;;;;4987675;28;20183;-59
2021/08/20 04:14:59;;;;;;;3.03;2.10;;;18.40;99.90;;;;;;4990379;28;20541;-60
2021/08/20 04:17:24;;;;;;;2.37;2.17;;;18.40;99.90;;;;;;4988849;28;20218;-59
2021/08/20 04:19:50;;;;;;;2.40;2.20;;;18.40;99.90;;;;;;4984706;28;20207;-59
2021/08/20 04:22:16;;;;;;;2.80;2.60;;;18.30;99.90;;;;;;4990436;28;20215;-59
2021/08/20 04:24:42;;;;;;;5.20;2.63;;;18.20;99.90;;;;;;4988984;28;20188;-59
2021/08/20 04:27:09;;;;;;;2.83;2.07;;;18.10;99.90;;;;;;4988476;28;20560;-58
2021/08/20 04:29:35;;;;;;;2.63;2.30;;;18.10;99.90;;;;;;4989987;28;20438;-59
2021/08/20 04:32:02;;;;;;;5.05;2.30;;;18.20;99.90;;;;;;4989480;28;20179;-59
2021/08/20 04:34:28;;;;;;;2.00;1.80;;;18.20;99.90;;;;;;4981058;28;20195;-59
2021/08/20 04:36:53;;;;;;;3.60;2.20;;;18.20;99.90;;;;;;4989337;28;20215;-59
2021/08/20 04:39:19;;;;;;;3.10;2.30;;;18.20;99.90;;;;;;4983723;28;20195;-58
2021/08/20 04:41:45;;;;;;;2.27;1.93;;;18.20;99.90;;;;;;4988067;28;20211;-58
2021/08/20 04:44:10;;;;;;;2.27;1.90;;;18.30;99.90;;;;;;4990344;28;20198;-58
2021/08/20 04:46:39;;;;;;;2.63;2.10;;;18.40;99.90;;;;;;4989716;28;20208;-58
2021/08/20 04:49:05;;;;;;;3.47;2.50;;;18.40;99.90;;;;;;4986378;28;20188;-59
2021/08/20 04:51:32;;;;;;;3.28;2.50;;;18.40;99.90;;;;;;4985881;28;20281;-59
2021/08/20 04:53:57;;;;;;;4.90;4.50;;;18.40;99.90;;;;;;4990217;28;20234;-58
2021/08/20 04:56:23;;;;;;;3.30;2.53;;;18.40;99.90;;;;;;4986816;28;20211;-58
2021/08/20 04:58:49;;;;;;;2.60;2.40;;;18.50;99.90;;;;;;4989776;28;20218;-58
2021/08/20 05:01:16;;;;;;;3.60;2.20;;;18.50;99.90;;;;;;4982894;28;20211;-58
2021/08/20 05:03:41;;;;;;;2.60;2.00;;;18.50;99.90;;;;;;4992970;28;20237;-50
2021/08/20 05:06:10;;;;;;;2.50;2.30;;;18.50;99.90;;;;;;4987529;28;20211;-49
2021/08/20 05:08:36;;;;;;;3.80;2.90;;;18.50;99.90;;;;;;4989083;28;21895;-51
2021/08/20 05:11:03;;;;;;;3.23;2.03;;;18.50;99.90;;;;;;4989614;28;20187;-51
2021/08/20 05:13:29;;;;;;;4.53;3.25;;;18.60;99.90;;;;;;4993232;28;20943;-50
2021/08/20 05:15:55;;;;;;;2.50;2.30;;;18.60;99.90;;;;;;4991657;28;20203;-51
2021/08/20 05:18:21;;;;;;;3.80;2.50;;;18.60;99.90;;;;;;4993586;28;20482;-51
2021/08/20 05:20:46;;;;;;;2.03;1.83;;;18.70;99.90;;;;;;4989504;28;20207;-52
2021/08/20 05:23:13;;;;;;;3.10;2.37;;;18.80;99.90;;;;;;4993415;28;20723;-54
2021/08/20 05:25:39;;;;;;;3.10;1.88;;;18.90;99.90;;;;;;4991162;28;20190;-54
2021/08/20 05:28:08;;;;;;;3.30;3.00;;;18.90;99.90;;;;;;4991373;28;20266;-53
2021/08/20 05:30:35;;;;;;;3.17;2.22;;;18.90;99.90;;;;;;4991569;28;20453;-53
2021/08/20 05:33:02;;;;;;;3.55;2.40;;;18.90;99.90;;;;;;4992881;28;20179;-51
2021/08/20 05:35:27;;;;;;;3.22;2.35;;;18.90;99.90;;;;;;4988233;28;20184;-51
2021/08/20 05:37:54;;;;;;;4.17;2.63;;;18.80;99.90;;;;;;4988635;28;20186;-52
2021/08/20 05:40:20;;;;;;;3.35;2.30;;;18.80;99.90;;;;;;4986308;28;20180;-53
2021/08/20 05:42:46;;;;;;;3.50;2.60;;;18.90;99.90;;;;;;4993385;28;20190;-53
2021/08/20 05:45:12;;;;;;;2.37;2.17;;;19.10;99.90;;;;;;4992867;28;20443;-52
2021/08/20 05:47:38;;;;;;;3.45;2.22;;;19.10;99.90;;;;;;4992150;28;20298;-53
2021/08/20 05:50:05;;;;;;;4.40;3.40;;;19.20;99.90;;;;;;4985170;28;20283;-52
2021/08/20 05:52:34;;;;;;;2.60;2.40;;;19.20;99.90;;;;;;4984772;28;20447;-53
2021/08/20 05:54:59;;;;;;;2.30;2.10;;;19.20;99.90;;;;;;4988341;28;20187;-52
2021/08/20 05:57:25;;;;;;;3.63;2.80;;;19.30;99.90;;;;;;4991978;28;20568;-51
2021/08/20 05:59:51;;;;;;;2.97;2.63;;;19.30;99.90;;;;;;4989951;28;20242;-53
2021/08/20 06:02:17;;;;;;;3.13;2.80;;;19.40;99.90;;;;;;4993411;28;20195;-52
2021/08/20 06:04:42;;;;;;;2.83;2.57;;;19.50;99.90;;;;;;4987583;28;20191;-51
2021/08/20 06:07:08;;;;;;;4.23;2.57;;;19.70;99.90;;;;;;4983303;28;20610;-52
2021/08/20 06:09:34;;;;;;;3.75;2.20;;;19.70;99.90;;;;;;4991063;28;20180;-51
2021/08/20 06:12:00;;;;;;;2.80;2.60;;;19.70;99.90;;;;;;4984181;28;20183;-52
2021/08/20 06:14:26;;;;;;;2.53;2.33;;;19.80;99.90;;;;;;4985456;28;20372;-51
2021/08/20 06:16:55;;;;;;;2.27;2.07;;;19.90;99.90;;;;;;4992475;28;20463;-52
2021/08/20 06:19:22;;;;;;;3.22;2.65;;;20.10;99.90;;;;;;4984062;28;20192;-52
2021/08/20 06:21:48;;;;;;;2.85;2.65;;;20.20;99.90;;;;;;4991858;28;20577;-52
2021/08/20 06:24:14;;;;;;;3.63;2.50;;;20.20;99.90;;;;;;4988124;28;20198;-52
2021/08/20 06:26:40;;;;;;;2.80;2.60;;;20.30;99.90;;;;;;4990950;28;20199;-52
2021/08/20 06:29:06;;;;;;;4.77;3.20;;;20.20;99.90;;;;;;4981661;28;20198;-52
2021/08/20 06:31:31;;;;;;;3.13;2.30;;;20.20;99.90;;;;;;4989787;28;20179;-49
2021/08/20 06:33:58;;;;;;;3.50;2.63;;;20.10;99.90;;;;;;4996651;28;20482;-51
2021/08/20 06:36:25;;;;;;;3.92;2.58;;;20.20;99.90;;;;;;4988346;28;20238;-51
2021/08/20 06:38:51;;;;;;;3.90;2.75;;;20.30;99.90;;;;;;4987251;28;20645;-50
2021/08/20 06:41:16;;;;;;;3.20;2.23;;;20.40;99.90;;;;;;4990040;28;20226;-50
2021/08/20 06:43:42;;;;;;;3.43;3.10;;;20.40;99.90;;;;;;4995168;28;20442;-50
2021/08/20 06:46:08;;;;;;;4.40;2.70;;;20.60;99.90;;;;;;4991795;28;20290;-50
2021/08/20 06:48:33;;;;;;;4.07;3.00;;;20.90;99.90;;;;;;4990600;28;20185;-49
2021/08/20 06:50:59;;;;;;;2.83;2.40;;;20.90;99.90;;;;;;4985898;28;20217;-50
2021/08/20 06:53:25;;;;;;;3.47;3.17;;;21.20;99.90;;;;;;4987240;28;20227;-50
2021/08/20 06:55:50;;;;;;;2.87;2.67;;;21.60;99.90;;;;;;4988327;28;20212;-51
2021/08/20 06:58:16;;;;;;;3.60;3.30;;;22.00;99.90;;;;;;4988782;28;20776;-50
2021/08/20 07:00:42;;;;;;;3.50;3.20;;;22.20;99.90;;;;;;4983649;28;20216;-51
2021/08/20 07:03:08;;;;;;;4.47;3.13;;;21.60;99.90;;;;;;4990723;28;20291;-50
2021/08/20 07:05:33;;;;;;;6.10;5.50;;;21.50;99.90;;;;;;4988559;28;20184;-49
2021/08/20 07:07:59;;;;;;;5.37;4.70;;;21.70;99.90;;;;;;4991417;28;20195;-50
2021/08/20 07:10:25;;;;;;;5.30;4.80;;;21.80;99.90;;;;;;4987209;28;20191;-49
2021/08/20 07:12:51;;;;;;;6.50;5.20;;;22.50;99.90;;;;;;4990327;28;20439;-49
2021/08/20 07:15:16;;;;;;;4.47;4.07;;;24.20;98.80;;;;;;4989514;28;20190;-53
2021/08/20 07:17:42;;;;;;;5.13;4.63;;;25.40;95.20;;;;;;4991131;28;20207;-51
2021/08/20 07:20:10;;;;;;;4.40;3.90;;;26.50;93.20;;;;;;4987975;28;20201;-53
2021/08/20 07:22:36;;;;;;;4.33;3.73;;;27.60;91.00;;;;;;4989033;28;20210;-52
2021/08/20 07:25:01;;;;;;;5.23;4.00;;;27.80;90.00;;;;;;4990794;28;20443;-53
2021/08/20 07:27:27;;;;;;;5.17;4.00;;;28.00;89.40;;;;;;4990294;28;20467;-53
2021/08/20 07:29:53;;;;;;;4.90;4.40;;;28.50;86.90;;;;;;4987802;28;20607;-55
2021/08/20 07:32:19;;;;;;;3.83;3.53;;;29.50;82.60;;;;;;4984945;28;20190;-54
2021/08/20 07:34:45;;;;;;;5.90;4.93;;;29.90;80.20;;;;;;4987546;28;20198;-53
2021/08/20 07:37:11;;;;;;;5.03;4.63;;;29.10;81.10;;;;;;4990496;28;20504;-52
2021/08/20 07:39:37;;;;;;;5.37;4.87;;;28.80;82.50;;;;;;4988223;28;20240;-52
2021/08/20 07:42:06;;;;;;;4.80;4.40;;;28.60;82.60;;;;;;4984641;28;20257;-53
2021/08/20 07:44:32;;;;;;;4.53;4.23;;;29.20;82.00;;;;;;4990203;28;20275;-53
2021/08/20 07:46:59;;;;;;;5.77;5.20;;;29.50;80.40;;;;;;4985364;28;20469;-53
2021/08/20 07:49:25;;;;;;;5.20;4.70;;;30.60;77.00;;;;;;4987381;28;20439;-53
2021/08/20 07:51:50;;;;;;;5.43;4.70;;;31.40;73.00;;;;;;4984056;28;20557;-52
2021/08/20 07:54:16;;;;;;;5.50;5.00;;;30.90;74.00;;;;;;4988728;28;20450;-54
2021/08/20 07:56:42;;;;;;;5.00;4.50;;;31.00;73.30;;;;;;4986650;28;20582;-56
2021/08/20 07:59:08;;;;;;;4.97;4.50;;;31.10;71.80;;;;;;4990352;28;20202;-53
2021/08/20 08:01:34;;;;;;;6.77;5.07;;;30.60;72.20;;;;;;4991053;28;20210;-53
2021/08/20 08:03:59;;;;;;;5.93;5.47;;;30.00;74.10;;;;;;4981156;28;20198;-53
2021/08/20 08:06:26;;;;;;;5.43;4.93;;;29.80;76.30;;;;;;4990809;28;20463;-52
2021/08/20 08:08:53;;;;;;;6.27;4.77;;;29.90;75.30;;;;;;4985465;28;20316;-53
2021/08/20 08:11:19;;;;;;;6.50;5.07;;;30.80;72.50;;;;;;4982656;28;20962;-53
2021/08/20 08:13:46;;;;;;;4.57;4.07;;;31.30;70.80;;;;;;4988128;28;20457;-51
2021/08/20 08:16:11;;;;;;;5.40;4.60;;;30.90;71.60;;;;;;4987625;28;20612;-53
2021/08/20 08:18:37;;;;;;;4.93;4.40;;;31.40;70.00;;;;;;4985365;28;20549;-54
2021/08/20 08:21:03;;;;;;;4.03;3.60;;;32.20;68.90;;;;;;4990263;28;20226;-53
2021/08/20 08:23:29;;;;;;;4.53;4.03;;;33.40;64.20;;;;;;4989866;28;20188;-53
2021/08/20 08:25:55;;;;;;;4.70;4.30;;;33.10;62.70;;;;;;4989563;28;20463;-53
2021/08/20 08:28:22;;;;;;;4.63;4.23;;;32.30;63.70;;;;;;4988487;28;20202;-52
2021/08/20 08:30:49;;;;;;;4.60;4.20;;;31.50;66.20;;;;;;4990641;28;20192;-52
2021/08/20 08:33:15;;;;;;;4.60;4.30;;;30.30;68.90;;;;;;4989091;28;20453;-53
2021/08/20 08:35:42;;;;;;;4.50;4.20;;;29.70;71.50;;;;;;4985660;28;20868;-52
2021/08/20 08:38:10;;;;;;;4.70;4.30;;;29.10;73.70;;;;;;4992631;28;20475;-52
2021/08/20 08:40:48;;;;;;;5.27;4.77;;;27.70;76.20;;;;;;4990935;28;20453;-52
2021/08/20 08:43:14;;;;;;;5.63;5.20;;;27.10;79.70;;;;;;4993207;28;20451;-53
2021/08/20 08:45:40;;;;;;;6.13;5.03;;;26.50;82.70;;;;;;4990554;28;20508;-52
2021/08/20 08:48:09;;;;;;;7.07;5.40;;;25.70;84.90;;;;;;4989446;28;20457;-51
2021/08/20 08:50:36;;;;;;;5.87;5.07;;;25.20;88.60;;;;;;4991244;28;20456;-52
2021/08/20 08:53:03;;;;;;;5.70;5.03;;;26.40;86.90;;;;;;4993733;28;20439;-52
2021/08/20 08:55:30;;;;;;;4.40;4.00;;;28.20;80.70;;;;;;4991275;28;20454;-53
2021/08/20 08:57:56;;;;;;;4.17;3.87;;;29.80;75.00;;;;;;4993440;28;20453;-54
2021/08/20 09:00:30;;;;;;;5.87;4.70;;;31.10;69.10;;;;;;4993311;28;20492;-52
2021/08/20 09:02:56;;;;;;;3.73;3.43;;;31.20;67.10;;;;;;4992266;28;20449;-52
2021/08/20 09:05:22;;;;;;;4.27;3.93;;;31.70;64.80;;;;;;4990525;28;20442;-50
2021/08/20 09:07:54;;;;;;;5.17;4.77;;;31.80;65.30;;;;;;4993516;28;20952;-52
2021/08/20 09:10:29;;;;;;;6.17;5.13;;;31.40;67.20;;;;;;4990536;28;20310;-51
2021/08/20 09:13:02;;;;;;;5.43;5.03;;;30.50;69.00;;;;;;4988177;28;20742;-53
2021/08/20 09:15:32;;;;;;;6.70;5.70;;;29.50;72.80;;;;;;4991804;28;20552;-53
2021/08/20 09:18:03;;;;;;;7.60;6.70;;;28.50;76.50;;;;;;4988844;28;20484;-52
2021/08/20 09:20:31;;;;;;;5.67;5.17;;;28.00;78.80;;;;;;4979804;28;20487;-51
2021/08/20 09:22:59;;;;;;;6.73;6.23;;;27.40;81.10;;;;;;4992734;28;20454;-52
2021/08/20 09:25:34;;;;;;;6.10;5.57;;;26.80;83.30;;;;;;4991454;28;20956;-52
2021/08/20 09:28:13;;;;;;;6.80;6.17;;;26.40;85.40;;;;;;4989793;28;20507;-52
2021/08/20 09:30:41;;;;;;;5.83;5.33;;;25.80;85.80;;;;;;4991260;28;20457;-52
2021/08/20 09:33:12;;;;;;;6.03;5.43;;;25.70;86.90;;;;;;4992897;28;20539;-53
2021/08/20 09:35:40;;;;;;;6.00;5.50;;;25.70;87.70;;;;;;4986506;28;20465;-52
2021/08/20 09:38:08;;;;;;;6.20;5.70;;;26.00;87.10;;;;;;4991176;28;20446;-51
2021/08/20 09:40:34;;;;;;;5.43;5.03;;;26.20;86.30;;;;;;4986923;28;20513;-52
2021/08/20 09:43:20;;;;;;;6.00;5.50;;;26.40;84.90;;;;;;4987079;28;20733;-51
2021/08/20 09:45:59;;;;;;;5.47;4.97;;;26.60;84.00;;;;;;4988508;28;20213;-51
2021/08/20 09:48:46;;;;;;;5.30;4.90;;;26.50;84.50;;;;;;4990903;28;20488;-51
2021/08/20 09:51:30;;;;;;;6.03;5.50;;;26.50;83.70;;;;;;4992293;28;20445;-51
2021/08/20 09:54:01;;;;;;;6.03;5.57;;;26.00;85.40;;;;;;4990088;28;20788;-50
2021/08/20 09:56:28;;;;;;;5.30;4.60;;;26.00;86.10;;;;;;4990474;28;20462;-51
2021/08/20 09:58:57;;;;;;;5.20;4.70;;;26.00;85.10;;;;;;4988201;28;20731;-50
2021/08/20 10:01:23;;;;;;;5.60;5.10;;;26.10;85.10;;;;;;4988551;28;20536;-51
2021/08/20 10:03:51;;;;;;;5.97;5.40;;;26.60;83.10;;;;;;4993106;28;20504;-51
2021/08/20 10:06:18;;;;;;;5.33;4.93;;;26.50;83.70;;;;;;4991189;28;20557;-51
2021/08/20 10:08:44;;;;;;;4.57;4.17;;;26.70;83.50;;;;;;4988243;28;20445;-51
2021/08/20 10:11:11;;;;;;;5.20;4.80;;;27.00;81.70;;;;;;4990022;28;20450;-51
2021/08/20 10:13:38;;;;;;;6.17;5.00;;;27.00;81.00;;;;;;4991891;28;20534;-51
2021/08/20 10:16:05;;;;;;;5.10;4.60;;;27.10;80.60;;;;;;4991922;28;20997;-51
2021/08/20 10:18:32;;;;;;;5.50;5.00;;;27.20;80.90;;;;;;4991486;28;20462;-51
2021/08/20 10:20:59;;;;;;;5.73;5.23;;;27.10;81.30;;;;;;4991030;28;20489;-51
2021/08/20 10:23:25;;;;;;;5.37;4.87;;;27.00;82.00;;;;;;4991824;28;20939;-51
2021/08/20 10:25:54;;;;;;;5.47;5.07;;;26.80;82.70;;;;;;4987710;28;20553;-51
2021/08/20 10:28:20;;;;;;;5.33;4.80;;;26.50;83.30;;;;;;4986774;28;20439;-51
2021/08/20 10:30:47;;;;;;;7.60;4.77;;;26.40;83.80;;;;;;4987819;28;20447;-50
2021/08/20 10:33:13;;;;;;;4.70;4.30;;;26.50;84.20;;;;;;4988733;28;20443;-51
2021/08/20 10:35:52;;;;;;;5.27;4.77;;;26.40;83.80;;;;;;4987286;28;20836;-51
2021/08/20 10:38:42;;;;;;;5.80;5.30;;;26.30;84.20;;;;;;4992096;28;20474;-51
2021/08/20 10:41:07;;;;;;;5.17;4.67;;;26.10;83.80;;;;;;4985755;28;20477;-51
2021/08/20 10:43:54;;;;;;;6.73;5.30;;;25.90;84.10;;;;;;4979087;28;20953;-51
2021/08/20 10:46:49;;;;;;;5.00;4.60;;;25.90;84.90;;;;;;4991873;28;20706;-50
2021/08/20 10:49:21;;;;;;;5.27;4.90;;;26.10;83.10;;;;;;4972149;28;20548;-51
2021/08/20 10:51:52;;;;;;;6.10;5.70;;;26.20;83.20;;;;;;4990395;28;20438;-51
2021/08/20 10:54:36;;;;;;;6.30;4.70;;;26.30;82.50;;;;;;4989261;28;20492;-51
2021/08/20 10:57:04;;;;;;;5.50;5.07;;;26.00;83.40;;;;;;4983953;28;20834;-50
2021/08/20 10:59:38;;;;;;;5.10;4.73;;;26.00;83.90;;;;;;4990833;28;20439;-50
2021/08/20 11:02:19;;;;;;;4.70;4.30;;;25.80;82.60;;;;;;4990837;28;20529;-51
2021/08/20 11:05:04;;;;;;;4.77;4.37;;;25.90;83.90;;;;;;4984299;28;20453;-51
2021/08/20 11:07:39;;;;;;;4.50;4.10;;;26.00;83.10;;;;;;4986909;28;20484;-51
2021/08/20 11:10:08;;;;;;;5.20;4.10;;;26.20;81.80;;;;;;4988680;28;21176;-50
2021/08/20 11:12:39;;;;;;;4.80;4.50;;;26.50;81.40;;;;;;4989934;28;20485;-50
2021/08/20 11:15:17;;;;;;;4.37;4.00;;;26.60;80.60;;;;;;4990782;28;20645;-50
2021/08/20 11:17:55;;;;;;;4.73;4.23;;;26.50;80.00;;;;;;4990342;28;20461;-50
2021/08/20 11:20:44;;;;;;;5.20;4.80;;;26.20;80.40;;;;;;4989065;28;20943;-50
2021/08/20 11:23:10;;;;;;;4.70;4.00;;;26.20;81.70;;;;;;4990482;28;20445;-50
2021/08/20 11:25:35;;;;;;;5.40;4.90;;;26.20;80.40;;;;;;4987934;28;20929;-51
2021/08/20 11:28:03;;;;;;;5.80;5.20;;;26.30;80.40;;;;;;4990713;28;20434;-51
2021/08/20 11:30:30;;;;;;;5.30;4.90;;;26.20;79.80;;;;;;4989867;28;20229;-51
2021/08/20 11:33:08;;;;;;;5.03;4.70;;;26.10;79.50;;;;;;4990689;28;20442;-51
2021/08/20 11:35:33;;;;;;;4.40;4.10;;;26.20;78.60;;;;;;4984064;28;20457;-50
2021/08/20 11:37:59;;;;;;;5.07;4.57;;;26.50;78.60;;;;;;4990340;28;20447;-51
2021/08/20 11:40:25;;;;;;;4.63;4.23;;;26.60;77.60;;;;;;4987313;28;20687;-50
2021/08/20 11:43:09;;;;;;;4.67;4.20;;;26.60;76.40;;;;;;4990240;28;20259;-51
2021/08/20 11:45:36;;;;;;;5.13;4.67;;;26.70;77.60;;;;;;4980814;28;20663;-51
2021/08/20 11:48:02;;;;;;;5.30;4.80;;;26.90;75.90;;;;;;4988533;28;20457;-51
2021/08/20 11:50:30;;;;;;;4.47;3.93;;;26.90;76.20;;;;;;4988329;28;20877;-50
2021/08/20 11:52:58;;;;;;;4.03;3.77;;;27.00;74.40;;;;;;4980487;28;20447;-51
2021/08/20 11:55:24;;;;;;;5.07;4.40;;;26.90;74.70;;;;;;4989793;28;20451;-51
2021/08/20 11:57:50;;;;;;;4.10;3.80;;;27.00;76.10;;;;;;4982172;28;20936;-51
2021/08/20 12:00:17;;;;;;;4.53;4.13;;;27.10;73.80;;;;;;4983485;28;20448;-51
2021/08/20 12:02:44;;;;;;;3.70;3.47;;;27.50;73.80;;;;;;4985324;28;20760;-50
2021/08/20 12:05:13;;;;;;;4.07;3.80;;;27.90;72.40;;;;;;4982704;28;20454;-51
2021/08/20 12:07:40;;;;;;;4.47;4.17;;;28.20;71.60;;;;;;4985886;28;20464;-51
2021/08/20 12:10:08;;;;;;;4.50;4.10;;;28.00;71.40;;;;;;4983120;28;20964;-51
2021/08/20 12:12:34;;;;;;;4.73;4.13;;;27.80;72.30;;;;;;4985696;28;20507;-50
2021/08/20 12:15:00;;;;;;;5.07;4.68;;;27.60;73.00;;;;;;4992958;28;20791;-51
2021/08/20 12:17:31;;;;;;;4.37;3.97;;;27.50;74.40;;;;;;4984923;28;20203;-53
2021/08/20 12:19:57;;;;;;;5.13;4.63;;;27.70;73.50;;;;;;4986505;28;20509;-52
2021/08/20 12:22:39;;;;;;;4.23;3.80;;;27.70;73.00;;;;;;4985168;28;20560;-53
2021/08/20 12:25:19;;;;;;;4.70;4.27;;;27.80;71.70;;;;;;4982004;28;20442;-51
2021/08/20 12:27:46;;;;;;;3.30;3.10;;;28.00;70.90;;;;;;4985724;28;20463;-53
2021/08/20 12:30:15;;;;;;;4.77;4.37;;;27.80;70.70;;;;;;4986769;28;20474;-53
2021/08/20 12:32:52;;;;;;;6.00;4.77;;;27.40;71.60;;;;;;4987290;28;22017;-50
2021/08/20 12:35:19;;;;;;;5.70;5.30;;;27.40;73.40;;;;;;4986732;28;20488;-54
2021/08/20 12:38:11;;;;;;;3.93;3.60;;;27.40;74.00;;;;;;4989416;28;20493;-53
2021/08/20 12:40:40;;;;;;;4.23;3.70;;;27.50;72.40;;;;;;4988642;28;20817;-53
2021/08/20 12:43:35;;;;;;;4.53;4.13;;;27.50;72.30;;;;;;4990016;28;20462;-53
2021/08/20 12:46:10;;;;;;;4.43;3.40;;;27.30;73.20;;;;;;4988085;28;20469;-53
2021/08/20 12:48:37;;;;;;;4.40;4.00;;;27.30;73.70;;;;;;4987609;28;20935;-52
2021/08/20 12:51:05;;;;;;;4.00;3.60;;;27.40;72.90;;;;;;4986094;28;20447;-52